KBDR

Igor I Sikorsky Memorial Airport

Bridgeport, Connecticut, USA
KBDR 210837Z 2109/2206 VRB03KT 6SM -SHRA SCT030 BKN060 FM211100 04005KT P6SM BKN060 FM211500 05010KT P6SM SCT060 FM211900 10010KT P6SM FEW250 FM220000 07006KT P6SM SCT060
Issued Valid From Valid To
Jun-21 @ 08:37 UTC
(2 hours ago)
Jun-21 @ 09:00 UTC
(an hour ago)
Jun-22 @ 06:00 UTC
(in 20 hours)
Jun-21 @ 09:00 to Jun-21 @ 11:00
KBDR 210837Z 2109/2206 VRB03KT 6SM -SHRA SCT030 BKN060
Wind Visibility Clouds Conditions
Variable at 3 knots 6 miles
  • Scattered at 3,000' AGL
  • Broken at 6,000' AGL
  • Light Rain
From Jun-21 @ 11:00 to Jun-21 @ 15:00
FM211100 04005KT P6SM BKN060
Wind Visibility Clouds
40° at 5 knots Greater than 6 miles
  • Broken at 6,000' AGL
From Jun-21 @ 15:00 to Jun-21 @ 19:00
FM211500 05010KT P6SM SCT060
Wind Visibility Clouds
50° at 10 knots Greater than 6 miles
  • Scattered at 6,000' AGL
From Jun-21 @ 19:00 to Jun-22 @ 00:00
FM211900 10010KT P6SM FEW250
Wind Visibility Clouds
100° at 10 knots Greater than 6 miles
  • Few at 25,000' AGL
From Jun-22 @ 00:00 to Jun-22 @ 06:00
FM220000 07006KT P6SM SCT060
Wind Visibility Clouds
70° at 6 knots Greater than 6 miles
  • Scattered at 6,000' AGL
KBDR 210837Z 2109/2206 VRB03KT 6SM -SHRA SCT030 BKN060 FM211100 04005KT P6SM BKN060 FM211500 05010KT P6SM SCT060 FM211900 10010KT P6SM FEW250 FM220000 07006KT P6SM SCT060
Issued Jun-21 @ 08:37 UTC
(2 hours ago)
Valid From Jun-21 @ 09:00 UTC
(an hour ago)
Valid To Jun-22 @ 06:00 UTC
(in 20 hours)
Jun-21 @ 09:00 - Jun-21 @ 11:00
Wind Visibility
Variable at 3 knots 6 miles
Clouds
  • Scattered at 3,000' AGL
  • Broken at 6,000' AGL
Conditions
  • Light Rain
From Jun-21 @ 11:00 - Jun-21 @ 15:00
Wind Visibility
40° at 5 knots Greater than 6 miles
Clouds
  • Broken at 6,000' AGL
From Jun-21 @ 15:00 - Jun-21 @ 19:00
Wind Visibility
50° at 10 knots Greater than 6 miles
Clouds
  • Scattered at 6,000' AGL
From Jun-21 @ 19:00 - Jun-22 @ 00:00
Wind Visibility
100° at 10 knots Greater than 6 miles
Clouds
  • Few at 25,000' AGL
From Jun-22 @ 00:00 - Jun-22 @ 06:00
Wind Visibility
70° at 6 knots Greater than 6 miles
Clouds
  • Scattered at 6,000' AGL